Flight Track Log - Related Links

Times and Time Zones

All times are in EDT time to prevent confusion due to time zone crossing. See the MTN7305 flight status page for this flight to view local times or setup timezone preferences in your user account.

Time Position Orientation Groundspeed Altitude Reporting Facility
EDT Latitude Longitude Course Direction KTS MPH feet Rate Location/Type
Mon 10:52:31 PM 39.2000 -76.6833 339° North 97 112 800  Level Potomac TRACON
Mon 10:53:31 PM 39.2333 -76.7000 339° North 125 144 1,500 737 Climbing Potomac TRACON
Mon 10:54:25 PM 39.2667 -76.7167 339° North 128 147 2,200 800 Climbing Potomac TRACON
Mon 10:55:31 PM 39.3000 -76.7167 360° North 127 146 3,100 810 Climbing Potomac TRACON
Mon 10:56:31 PM 39.3333 -76.7167 360° North 125 144 3,900 714 Climbing Potomac TRACON
Mon 10:57:37 PM 39.3833 -76.7167 360° North 131 151 4,600 550 Climbing Potomac TRACON
Mon 10:58:31 PM 39.4167 -76.7167 360° North 149 171 5,000 211 Climbing Potomac TRACON
Mon 10:59:31 PM 39.4500 -76.6833 38° Northeast 181 208 5,000  Level Potomac TRACON
Mon 11:00:37 PM 39.5000 -76.6500 27° Northeast 186 214 5,000  Level Potomac TRACON
Mon 11:01:37 PM 39.5167 -76.5833 72° East 185 213 5,000  Level Potomac TRACON
Mon 11:02:37 PM 39.5500 -76.5333 49° Northeast 185 213 5,000 -48 Level Potomac TRACON
Mon 11:03:43 PM 39.5667 -76.4667 72° East 185 213 4,900 -48 Descending Potomac TRACON
Mon 11:04:43 PM 39.5667 -76.4000 90° East 178 205 4,900 53 Level Potomac TRACON
Mon 11:05:37 PM 39.5667 -76.3500 90° East 173 199 5,000 38 Climbing Potomac TRACON
Mon 11:07:22 PM 39.5667 -76.2500 90° East 168 193 5,000  Level Philadelphia TRACON
Mon 11:08:22 PM 39.5667 -76.1833 90° East 174 200 5,000  Level Philadelphia TRACON
Mon 11:09:22 PM 39.5667 -76.1167 90° East 170 196 5,000  Level Philadelphia TRACON
Mon 11:10:28 PM 39.5667 -76.0500 90° East 169 194 5,000  Level Philadelphia TRACON
Mon 11:11:28 PM 39.5833 -75.9833 72° East 174 200 5,000  Level Philadelphia TRACON
Mon 11:12:28 PM 39.6167 -75.9333 49° Northeast 181 208 5,000  Level Philadelphia TRACON
Mon 11:13:28 PM 39.6500 -75.8833 49° Northeast 175 201 5,000  Level Philadelphia TRACON
Mon 11:14:28 PM 39.6667 -75.8500 57° Northeast 175 201 5,000  Level Philadelphia TRACON
Mon 11:15:34 PM 39.7000 -75.7833 57° Northeast 172 198 5,000  Level Philadelphia TRACON
Mon 11:16:28 PM 39.7333 -75.7500 38° Northeast 170 196 5,000  Level Philadelphia TRACON
Mon 11:17:34 PM 39.7667 -75.7000 49° Northeast 182 209 5,000  Level Philadelphia TRACON
Mon 11:18:34 PM 39.8167 -75.7167 346° North 175 201 5,000  Level Philadelphia TRACON
Mon 11:19:29 PM 39.8500 -75.6833 38° Northeast 170 196 5,000  Level Philadelphia TRACON
Mon 11:20:47 PM 39.8833 -75.6167 57° Northeast 170 196 5,000  Level Philadelphia TRACON
Mon 11:21:53 PM 39.9167 -75.5500 57° Northeast 168 193 5,000  Level Philadelphia TRACON
Mon 11:22:53 PM 39.9333 -75.5000 66° East 171 197 5,000  Level Philadelphia TRACON
Mon 11:23:53 PM 39.9667 -75.4500 49° Northeast 170 196 5,000  Level Philadelphia TRACON
Mon 11:24:53 PM 39.9833 -75.4000 66° East 165 190 5,000  Level Philadelphia TRACON
Mon 11:25:53 PM 40.0167 -75.3500 49° Northeast 165 190 5,000  Level Philadelphia TRACON
Mon 11:26:53 PM 40.0500 -75.3000 49° Northeast 167 192 5,000  Level Philadelphia TRACON
Mon 11:27:47 PM 40.0667 -75.2667 57° Northeast 171 197 5,000  Level Philadelphia TRACON
Mon 11:28:47 PM 40.1000 -75.2167 49° Northeast 169 194 5,000  Level Philadelphia TRACON
Mon 11:29:29 PM 40.1167 -75.1833 57° Northeast 170 196 5,000  Level Philadelphia TRACON
Mon 11:30:29 PM 40.1333 -75.1333 66° East 167 192 5,000  Level Philadelphia TRACON
Mon 11:31:44 PM 40.1667 -75.0667 57° Northeast 163 188 5,000  Level New York TRACON
Mon 11:32:38 PM 40.2000 -75.0167 49° Northeast 162 186 5,000  Level New York TRACON
Mon 11:33:38 PM 40.2167 -74.9667 66° East 163 188 5,000  Level New York TRACON
Mon 11:34:38 PM 40.2500 -74.9167 49° Northeast 162 186 5,000  Level New York TRACON
Mon 11:35:38 PM 40.2667 -74.8833 57° Northeast 165 190 5,000  Level New York TRACON
Mon 11:36:38 PM 40.3000 -74.8333 49° Northeast 164 189 5,000  Level New York TRACON
Mon 11:37:38 PM 40.3333 -74.8000 37° Northeast 167 192 5,000  Level New York TRACON
Mon 11:38:38 PM 40.3667 -74.7500 49° Northeast 171 197 5,000  Level New York TRACON
Mon 11:39:38 PM 40.4000 -74.7000 49° Northeast 170 196 5,000  Level New York TRACON
Mon 11:40:38 PM 40.4333 -74.6667 37° Northeast 170 196 5,000  Level New York TRACON
Mon 11:41:38 PM 40.4833 -74.6500 14° North 172 198 5,000  Level New York TRACON
Mon 11:42:38 PM 40.5333 -74.6333 14° North 168 193 5,000  Level New York TRACON
Mon 11:43:38 PM 40.5667 -74.6333 360° North 171 197 5,000  Level New York TRACON
Mon 11:44:38 PM 40.6167 -74.6167 14° North 169 194 5,000  Level New York TRACON
Mon 11:45:38 PM 40.6667 -74.6167 360° North 167 192 5,000  Level New York TRACON
Mon 11:46:38 PM 40.7167 -74.6000 14° North 169 194 5,000 -95 Level New York TRACON
Mon 11:47:44 PM 40.7667 -74.6000 360° North 173 199 4,800 -200 Descending New York TRACON
Mon 11:48:38 PM 40.8000 -74.5833 21° North 183 211 4,600 -316 Descending New York TRACON
Mon 11:49:38 PM 40.8333 -74.5500 37° Northeast 181 208 4,200 -429 Descending New York TRACON
Mon 11:50:44 PM 40.8833 -74.4833 45° Northeast 181 208 3,700 -400 Descending New York TRACON
Mon 11:51:38 PM 40.9000 -74.4333 66° East 181 208 3,400 -368 Descending New York TRACON
Mon 11:52:38 PM 40.9167 -74.3833 66° East 174 200 3,000 -200 Descending New York TRACON
Mon 11:53:38 PM 40.9333 -74.3333 66° East 166 191 3,000  Level New York TRACON
Mon 11:54:38 PM 40.9500 -74.2667 72° East 162 186 3,000  Level New York TRACON
Mon 11:55:32 PM 40.9500 -74.2167 90° East 156 180 3,000  Level New York TRACON
Mon 11:56:38 PM 40.9500 -74.1500 90° East 155 178 3,000  Level New York TRACON
Mon 11:57:38 PM 40.9333 -74.1167 123° Southeast 146 168 3,000  Level New York TRACON
Mon 11:58:38 PM 40.9000 -74.1000 159° South 143 165 3,000  Level New York TRACON
Mon 11:59:38 PM 40.8500 -74.1000 180° South 144 166 3,000 -200 Level New York TRACON
Tue 12:00:38 AM 40.8167 -74.1000 180° South 154 177 2,600 -550 Descending New York TRACON
Tue 12:01:38 AM 40.7667 -74.1167 194° South 167 192 1,900 -900 Descending New York TRACON
Tue 12:02:38 AM 40.7333 -74.1333 201° Southwest 166 191 800 -1,100 Descending New York TRACON

Login

Don't have an account? Register now (free) for customized features, flight alerts, and more!